Time;durP1;ratioP1;P1;durP2;ratioP2;P2;SDS_P1;SDS_P2;PMS_P1;PMS_P2;Temp;Humidity;BMP_temperature;BMP_pressure;BME280_temperature;BME280_humidity;BME280_pressure;Samples;Min_cycle;Max_cycle;Signal;HPM_P1;HPM_P2
2022/01/01 00:04:59;;;;;;;;;;;10.30;99.90;;;9.03;78.70;96548.69;10316542;28;1766;-77
2022/01/01 00:10:03;;;;;;;;;;;10.30;99.90;;;9.00;79.39;96548.38;10315497;28;1989;-76
2022/01/01 00:15:07;;;;;;;;;;;10.20;99.90;;;9.00;79.32;96543.00;10318665;28;1828;-75
2022/01/01 00:20:10;;;;;;;;;;;10.20;99.90;;;8.79;80.55;96539.19;10316935;28;1861;-75
2022/01/01 00:25:14;;;;;;;;;;;10.10;99.90;;;8.89;79.96;96542.03;10313536;28;1864;-76
2022/01/01 00:30:17;;;;;;;;;;;10.10;99.90;;;8.78;81.11;96545.59;10318500;28;1971;-75
2022/01/01 00:35:20;;;;;;;;;;;10.00;99.90;;;8.58;82.36;96549.56;10319742;28;1785;-77
2022/01/01 00:40:23;;;;;;;;;;;9.90;99.90;;;8.51;82.59;96553.44;10336467;28;1770;-75
2022/01/01 00:45:26;;;;;;;;;;;9.80;99.90;;;8.48;82.78;96570.00;10320211;28;1877;-76
2022/01/01 00:50:29;;;;;;;;;;;9.90;99.90;;;8.42;83.60;96571.78;10339213;28;1948;-76
2022/01/01 00:55:36;;;;;;;;;;;9.70;99.90;;;8.37;84.29;96574.38;10314923;28;1774;-76
2022/01/01 01:00:39;;;;;;;;;;;9.70;99.90;;;8.44;83.57;96577.72;10317824;28;1721;-78
2022/01/01 01:05:43;;;;;;;;;;;9.80;99.90;;;8.28;84.23;96579.28;10320172;28;1817;-77
2022/01/01 01:10:48;;;;;;;;;;;9.80;99.90;;;8.16;85.23;96578.50;10316287;28;1914;-77
2022/01/01 01:15:51;;;;;;;;;;;9.50;99.90;;;8.06;85.98;96579.09;10319558;28;1781;-76
2022/01/01 01:20:55;;;;;;;;;;;9.50;99.90;;;8.04;86.08;96597.28;10317061;28;1966;-77
2022/01/01 01:26:00;;;;;;;;;;;9.30;99.90;;;7.91;87.00;96597.53;10323950;28;1883;-77
2022/01/01 01:31:07;;;;;;;;;;;9.20;99.90;;;7.84;88.01;96607.56;10322670;28;1899;-77
2022/01/01 01:36:10;;;;;;;;;;;9.20;99.90;;;7.81;88.20;96613.38;10316718;28;1790;-76
2022/01/01 01:41:14;;;;;;;;;;;9.10;99.90;;;7.76;88.56;96616.78;10311818;28;1911;-76
2022/01/01 01:46:17;;;;;;;;;;;9.10;99.90;;;7.62;89.24;96620.72;10316203;28;1808;-76
2022/01/01 01:51:21;;;;;;;;;;;9.00;99.90;;;7.72;88.63;96620.16;10311711;28;1975;-76
2022/01/01 01:56:24;;;;;;;;;;;8.90;99.90;;;7.66;88.73;96616.56;10314992;28;1979;-77
2022/01/01 02:01:29;;;;;;;;;;;8.90;99.90;;;7.55;89.98;96610.16;10310887;28;1989;-75
2022/01/01 02:06:33;;;;;;;;;;;8.90;99.90;;;7.53;89.76;96617.59;10318101;28;1984;-75
2022/01/01 02:11:36;;;;;;;;;;;8.80;99.90;;;7.46;90.21;96616.09;10314275;28;2063;-77
2022/01/01 02:16:55;;;;;;;;;;;8.90;99.90;;;7.41;90.75;96610.63;10315724;28;2401;-77
2022/01/01 02:22:04;;;;;;;;;;;8.70;99.90;;;7.34;91.69;96617.97;10306664;28;2064;-77
2022/01/01 02:27:07;;;;;;;;;;;8.80;99.90;;;7.31;91.77;96609.34;10341274;28;2036;-76
2022/01/01 02:32:10;;;;;;;;;;;8.60;99.90;;;7.35;91.87;96604.34;10364475;28;1895;-77
2022/01/01 02:37:14;;;;;;;;;;;8.60;99.90;;;7.29;91.77;96605.28;10365700;28;1974;-76
2022/01/01 02:42:19;;;;;;;;;;;8.60;99.90;;;7.32;91.62;96611.00;10370272;28;2012;-76
2022/01/01 02:47:23;;;;;;;;;;;8.60;99.90;;;7.27;91.54;96607.38;10366602;28;1938;-76
2022/01/01 02:52:26;;;;;;;;;;;8.50;99.90;;;7.32;90.57;96602.16;10370843;28;1615;-76
2022/01/01 02:57:30;;;;;;;;;;;8.50;99.90;;;7.22;91.61;96605.41;10337559;28;1503;-76
2022/01/01 03:02:34;;;;;;;;;;;8.50;99.90;;;7.23;90.75;96617.72;10310672;28;1840;-76
2022/01/01 03:07:38;;;;;;;;;;;8.50;99.90;;;7.13;91.91;96611.34;10299640;28;1946;-76
2022/01/01 03:12:42;;;;;;;;;;;8.50;99.90;;;7.14;91.29;96623.66;10296171;28;1865;-77
2022/01/01 03:17:46;;;;;;;;;;;8.40;99.90;;;7.12;91.61;96620.38;10297649;28;2182;-76
2022/01/01 03:23:06;;;;;;;;;;;8.40;99.90;;;7.13;91.13;96628.19;10298341;28;1852;-76
2022/01/01 03:28:12;;;;;;;;;;;8.40;99.90;;;7.15;91.59;96630.63;10308769;28;1903;-76
2022/01/01 03:33:17;;;;;;;;;;;8.40;99.90;;;7.17;91.47;96641.88;10304448;28;1873;-76
2022/01/01 03:38:20;;;;;;;;;;;8.40;99.90;;;7.12;91.21;96647.09;10308785;28;1887;-76
2022/01/01 03:43:23;;;;;;;;;;;8.40;99.90;;;7.12;91.34;96653.25;10321143;28;1869;-75
2022/01/01 03:48:26;;;;;;;;;;;8.30;99.90;;;7.20;91.01;96666.31;10304555;28;1978;-77
2022/01/01 03:53:29;;;;;;;;;;;8.30;99.90;;;7.39;90.35;96663.56;10310544;28;2095;-77
2022/01/01 03:58:33;;;;;;;;;;;8.40;99.90;;;7.49;89.84;96669.94;10310966;28;1983;-77
2022/01/01 04:03:36;;;;;;;;;;;8.50;99.90;;;7.51;89.71;96669.72;10308100;28;1897;-76
2022/01/01 04:08:39;;;;;;;;;;;8.60;99.90;;;7.41;90.24;96664.94;10313321;28;1981;-76
2022/01/01 04:13:43;;;;;;;;;;;8.60;99.90;;;7.30;90.52;96660.38;10305241;28;1907;-76
2022/01/01 04:18:46;;;;;;;;;;;8.50;99.90;;;7.26;91.29;96664.59;10310043;28;2249;-76
2022/01/01 04:23:49;;;;;;;;;;;8.70;99.90;;;7.19;91.71;96658.50;10316767;28;2086;-76
2022/01/01 04:28:53;;;;;;;;;;;8.40;99.90;;;7.10;92.94;96654.56;10320813;28;1911;-77
2022/01/01 04:33:56;;;;;;;;;;;8.40;99.90;;;7.03;93.16;96644.78;10316908;28;1766;-76
2022/01/01 04:38:59;;;;;;;;;;;8.50;99.90;;;6.86;94.11;96643.81;10316696;28;1962;-76
2022/01/01 04:44:03;;;;;;;;;;;8.20;99.90;;;6.82;95.60;96664.03;10318971;28;1761;-76
2022/01/01 04:49:06;;;;;;;;;;;8.10;99.90;;;6.71;96.49;96662.94;10316338;28;1899;-76
2022/01/01 04:54:15;;;;;;;;;;;8.00;99.90;;;6.65;96.93;96661.16;10314714;28;1836;-76
2022/01/01 04:59:18;;;;;;;;;;;8.00;99.90;;;6.61;97.27;96668.00;10313786;28;1841;-76
2022/01/01 05:04:22;;;;;;;;;;;7.90;99.90;;;6.53;98.03;96667.50;10319610;28;1781;-76
2022/01/01 05:09:27;;;;;;;;;;;7.90;99.90;;;6.44;98.30;96667.03;10315347;28;1914;-76
2022/01/01 05:14:31;;;;;;;;;;;7.80;99.90;;;6.40;99.17;96673.84;10339768;28;1809;-76
2022/01/01 05:19:35;;;;;;;;;;;7.70;99.90;;;6.29;99.77;96695.94;10317281;28;2017;-76
2022/01/01 05:24:38;;;;;;;;;;;7.60;99.90;;;6.22;100.00;96696.84;10310179;28;1706;-76
2022/01/01 05:29:41;;;;;;;;;;;7.50;99.90;;;6.07;100.00;96692.94;10309253;28;1923;-77
2022/01/01 05:34:44;;;;;;;;;;;7.40;99.90;;;6.01;100.00;96683.13;10316937;28;1836;-77
2022/01/01 05:39:48;;;;;;;;;;;7.40;99.90;;;5.94;100.00;96681.34;10324428;28;1896;-77
2022/01/01 05:44:51;;;;;;;;;;;7.50;99.90;;;5.91;100.00;96687.13;10334012;28;1876;-77
2022/01/01 05:49:54;;;;;;;;;;;7.20;99.90;;;5.82;100.00;96676.94;10327227;28;1904;-76
2022/01/01 05:54:57;;;;;;;;;;;7.20;99.90;;;5.75;100.00;96668.19;10323914;28;1865;-74
2022/01/01 06:00:00;;;;;;;;;;;7.20;99.90;;;5.72;100.00;96679.28;10323664;28;1868;-76
2022/01/01 06:05:03;;;;;;;;;;;7.10;99.90;;;5.67;100.00;96679.97;10318527;28;1802;-75
2022/01/01 06:10:07;;;;;;;;;;;7.00;99.90;;;5.62;100.00;96682.47;10313156;28;1976;-75
2022/01/01 06:15:10;;;;;;;;;;;6.90;99.90;;;5.57;100.00;96683.13;10307981;28;1830;-77
2022/01/01 06:20:13;;;;;;;;;;;6.90;99.90;;;5.46;100.00;96691.03;10307262;28;1981;-78
2022/01/01 06:25:36;;;;;;;;;;;6.80;99.90;;;5.41;100.00;96689.84;10312206;28;1911;-77
2022/01/01 06:30:40;;;;;;;;;;;6.70;99.90;;;5.37;100.00;96682.50;10310679;28;1914;-76
2022/01/01 06:35:43;;;;;;;;;;;6.70;99.90;;;5.32;100.00;96679.66;10310307;28;1911;-77
2022/01/01 06:40:47;;;;;;;;;;;6.70;99.90;;;5.31;100.00;96684.19;10312932;28;1845;-75
2022/01/01 06:45:50;;;;;;;;;;;6.70;99.90;;;5.36;100.00;96687.03;10318042;28;1814;-76
2022/01/01 06:50:54;;;;;;;;;;;6.60;99.90;;;5.36;100.00;96692.34;10314251;28;1918;-76
2022/01/01 06:55:59;;;;;;;;;;;6.60;99.90;;;5.36;100.00;96687.03;10313494;28;1857;-76
2022/01/01 07:01:02;;;;;;;;;;;6.60;99.90;;;5.45;100.00;96681.41;10311701;28;1971;-75
2022/01/01 07:06:06;;;;;;;;;;;6.70;99.90;;;5.44;100.00;96683.25;10315971;28;1841;-77
2022/01/01 07:11:09;;;;;;;;;;;6.70;99.90;;;5.45;100.00;96674.22;10308885;28;1918;-77
2022/01/01 07:16:13;;;;;;;;;;;6.60;99.90;;;5.47;100.00;96676.66;10313349;28;1981;-77
2022/01/01 07:21:16;;;;;;;;;;;6.70;99.90;;;5.49;100.00;96694.09;10322138;28;2231;-76
2022/01/01 07:26:19;;;;;;;;;;;6.70;99.90;;;5.57;100.00;96692.97;10331421;28;1837;-76
2022/01/01 07:31:22;;;;;;;;;;;6.80;99.90;;;5.59;100.00;96694.38;10321469;28;2044;-76
2022/01/01 07:36:26;;;;;;;;;;;6.80;99.90;;;5.82;100.00;96683.09;10323011;28;1880;-76
2022/01/01 07:41:34;;;;;;;;;;;6.80;99.90;;;5.93;100.00;96671.72;10315723;28;1825;-75
2022/01/01 07:46:37;;;;;;;;;;;7.00;99.90;;;6.06;100.00;96665.41;10320625;28;1798;-76
2022/01/01 07:51:41;;;;;;;;;;;7.10;99.90;;;6.10;100.00;96671.13;10319158;28;1890;-76
2022/01/01 07:56:44;;;;;;;;;;;7.20;99.90;;;6.16;100.00;96664.88;10320830;28;1825;-75
2022/01/01 08:01:47;;;;;;;;;;;7.20;99.90;;;6.26;99.97;96670.53;10321777;28;1864;-76
2022/01/01 08:06:51;;;;;;;;;;;7.30;99.90;;;6.34;99.28;96667.53;10321019;28;1799;-76
2022/01/01 08:11:54;;;;;;;;;;;7.30;99.90;;;6.42;98.76;96669.06;10319717;28;1969;-76
2022/01/01 08:16:58;;;;;;;;;;;7.40;99.90;;;6.53;97.92;96670.19;10318134;28;1896;-76
2022/01/01 08:22:01;;;;;;;;;;;7.50;99.90;;;6.64;96.20;96678.25;10311959;28;1907;-76
2022/01/01 08:27:05;;;;;;;;;;;7.60;99.90;;;6.80;94.11;96689.31;10317833;28;1825;-76
2022/01/01 08:32:08;;;;;;;;;;;7.70;99.90;;;6.93;92.16;96689.94;10316212;28;2063;-78
2022/01/01 08:37:11;;;;;;;;;;;7.80;99.90;;;7.11;91.20;96699.75;10321787;28;1884;-75
2022/01/01 08:42:14;;;;;;;;;;;8.10;99.90;;;7.18;89.91;96697.81;10318034;28;1829;-77
2022/01/01 08:47:17;;;;;;;;;;;8.20;99.90;;;7.32;89.13;96691.22;10319675;28;1876;-76
2022/01/01 08:52:21;;;;;;;;;;;8.30;99.90;;;7.37;88.41;96711.09;10305417;28;2006;-76
2022/01/01 08:57:24;;;;;;;;;;;8.40;99.90;;;7.49;87.59;96706.59;10314392;28;1888;-76
2022/01/01 09:02:28;;;;;;;;;;;8.50;99.90;;;7.57;88.18;96704.41;10333769;28;1845;-76
2022/01/01 09:07:32;;;;;;;;;;;8.60;99.90;;;7.69;86.51;96695.53;10332180;28;1896;-76
2022/01/01 09:12:35;;;;;;;;;;;8.70;99.90;;;7.85;84.06;96695.66;10319524;28;2139;-76
2022/01/01 09:17:39;;;;;;;;;;;8.80;99.90;;;7.89;84.45;96700.53;10304098;28;1992;-75
2022/01/01 09:22:42;;;;;;;;;;;8.90;99.90;;;7.99;82.83;96695.41;10311351;28;1876;-76
2022/01/01 09:27:45;;;;;;;;;;;8.90;99.90;;;8.09;82.38;96701.00;10315653;28;1845;-76
2022/01/01 09:32:49;;;;;;;;;;;9.00;99.90;;;8.14;83.22;96709.13;10317500;28;1934;-76
2022/01/01 09:37:53;;;;;;;;;;;9.10;99.90;;;8.24;81.83;96709.38;10319222;28;2033;-76
2022/01/01 09:42:56;;;;;;;;;;;9.30;99.90;;;8.38;80.29;96726.81;10312238;28;1864;-76
2022/01/01 09:48:00;;;;;;;;;;;9.30;99.90;;;8.47;79.37;96727.28;10311078;28;1908;-77
2022/01/01 09:53:03;;;;;;;;;;;9.40;99.90;;;8.56;79.61;96728.53;10316442;28;1985;-76
2022/01/01 09:58:06;;;;;;;;;;;9.50;99.90;;;8.68;78.79;96719.66;10319061;28;1893;-75
2022/01/01 10:03:10;;;;;;;;;;;9.60;99.90;;;8.76;78.32;96721.94;10302485;28;2007;-76
2022/01/01 10:08:13;;;;;;;;;;;9.70;99.90;;;8.85;77.92;96720.53;10323718;28;1919;-77
2022/01/01 10:13:16;;;;;;;;;;;9.80;99.90;;;8.90;77.44;96713.38;10330518;28;1910;-78
2022/01/01 10:18:20;;;;;;;;;;;10.00;99.90;;;8.89;78.08;96705.59;10324373;28;3048;-77
2022/01/01 10:23:27;;;;;;;;;;;9.90;99.90;;;8.93;78.33;96718.28;10315146;28;1880;-77
2022/01/01 10:28:30;;;;;;;;;;;9.90;99.90;;;9.02;77.92;96710.66;10330292;28;1879;-76
2022/01/01 10:33:34;;;;;;;;;;;10.00;99.90;;;9.15;77.80;96714.91;10327987;28;1918;-76
2022/01/01 10:38:38;;;;;;;;;;;10.10;99.90;;;9.43;75.58;96712.19;10324916;28;1887;-76
2022/01/01 10:43:42;;;;;;;;;;;10.30;99.90;;;9.58;74.54;96714.28;10310821;28;1864;-76
2022/01/01 10:48:57;;;;;;;;;;;10.50;99.90;;;9.64;75.33;96699.91;10319592;28;1883;-74
2022/01/01 10:54:00;;;;;;;;;;;10.60;99.90;;;9.75;74.55;96692.81;10329785;28;1911;-75
2022/01/01 10:59:03;;;;;;;;;;;10.70;99.90;;;9.85;74.63;96690.28;10337963;28;1900;-76
2022/01/01 11:04:07;;;;;;;;;;;10.70;99.90;;;9.69;75.47;96675.00;10348488;28;1877;-77
2022/01/01 11:09:15;;;;;;;;;;;10.80;99.90;;;9.70;76.29;96663.22;10337013;28;1829;-76
2022/01/01 11:14:18;;;;;;;;;;;10.70;99.90;;;9.92;76.42;96677.47;10325263;28;1879;-76
2022/01/01 11:19:21;;;;;;;;;;;10.80;99.90;;;10.10;74.53;96673.69;10324743;28;1908;-75
2022/01/01 11:24:25;;;;;;;;;;;10.90;99.90;;;10.09;75.81;96661.34;10325739;28;1853;-76
2022/01/01 11:29:29;;;;;;;;;;;11.00;99.90;;;10.23;75.37;96662.63;10320420;28;1821;-76
2022/01/01 11:34:35;;;;;;;;;;;11.10;99.90;;;10.32;74.77;96659.50;10320168;28;1979;-76
2022/01/01 11:39:40;;;;;;;;;;;11.20;99.90;;;10.44;73.46;96657.50;10319864;28;1946;-76
2022/01/01 11:44:43;;;;;;;;;;;11.30;99.90;;;10.33;74.92;96651.19;10323791;28;1837;-75
2022/01/01 11:49:47;;;;;;;;;;;11.40;99.90;;;10.43;73.51;96645.97;10330065;28;1887;-76
2022/01/01 11:54:52;;;;;;;;;;;11.40;99.90;;;10.33;75.08;96629.69;10332242;28;1797;-75
2022/01/01 12:00:04;;;;;;;;;;;11.30;99.90;;;10.60;74.12;96631.59;10335402;28;1856;-75
2022/01/01 12:05:08;;;;;;;;;;;11.40;99.90;;;10.55;73.04;96626.97;10331317;28;2111;-76
2022/01/01 12:10:11;;;;;;;;;;;11.50;99.90;;;10.55;73.07;96616.22;10329876;28;1910;-78
2022/01/01 12:15:14;;;;;;;;;;;11.50;99.90;;;10.55;73.85;96632.34;10330216;28;1817;-77
2022/01/01 12:20:18;;;;;;;;;;;11.50;99.90;;;10.66;74.12;96623.34;10324681;28;1887;-77
2022/01/01 12:25:21;;;;;;;;;;;11.50;99.90;;;10.78;73.88;96624.00;10326506;28;1409;-76
2022/01/01 12:30:24;;;;;;;;;;;11.70;99.90;;;10.73;73.93;96634.69;10349731;28;1977;-75
2022/01/01 12:35:28;;;;;;;;;;;11.70;99.90;;;10.97;74.52;96632.53;10377042;22;3675;-71
2022/01/01 12:40:33;;;;;;;;;;;11.70;99.90;;;11.03;73.55;96617.25;10366244;28;1367;-70
2022/01/01 12:45:36;;;;;;;;;;;11.90;99.90;;;11.02;73.05;96615.63;10360715;28;1362;-72
2022/01/01 12:50:40;;;;;;;;;;;12.00;99.90;;;11.07;73.02;96618.38;10361082;28;1910;-71
2022/01/01 12:55:43;;;;;;;;;;;12.00;99.90;;;11.08;72.56;96628.06;10353485;28;1971;-72
2022/01/01 13:00:46;;;;;;;;;;;12.00;99.90;;;11.05;73.39;96617.78;10356993;28;1485;-72
2022/01/01 13:05:50;;;;;;;;;;;12.00;99.90;;;11.19;73.60;96627.06;10361728;28;1364;-71
2022/01/01 13:10:53;;;;;;;;;;;12.10;99.90;;;11.13;73.61;96611.13;10364865;28;1927;-72
2022/01/01 13:15:56;;;;;;;;;;;12.10;99.90;;;11.00;74.54;96606.97;10375380;28;1406;-72
2022/01/01 13:21:00;;;;;;;;;;;12.00;99.90;;;10.85;74.72;96596.91;10369093;28;1602;-73
2022/01/01 13:26:03;;;;;;;;;;;11.90;99.90;;;10.81;75.69;96599.31;10389484;28;1380;-72
2022/01/01 13:31:07;;;;;;;;;;;11.90;99.90;;;10.87;76.00;96602.81;10359354;28;1977;-71
2022/01/01 13:36:10;;;;;;;;;;;11.90;99.90;;;11.02;75.40;96602.97;10358496;28;1306;-70
2022/01/01 13:41:14;;;;;;;;;;;11.90;99.90;;;10.89;76.23;96599.91;10356426;28;2010;-70
2022/01/01 13:46:17;;;;;;;;;;;11.90;99.90;;;10.86;76.00;96600.41;10356551;28;1318;-72
2022/01/01 13:51:22;;;;;;;;;;;11.90;99.90;;;10.72;78.10;96605.38;10352254;28;1915;-73
2022/01/01 13:56:25;;;;;;;;;;;11.80;99.90;;;10.65;78.34;96599.41;10351344;28;1700;-72
2022/01/01 14:01:28;;;;;;;;;;;11.70;99.90;;;10.68;78.80;96594.31;10354627;28;1453;-72
2022/01/01 14:06:32;;;;;;;;;;;11.70;99.90;;;10.72;77.49;96595.44;10357004;28;1882;-70
2022/01/01 14:11:36;;;;;;;;;;;11.70;99.90;;;10.77;77.25;96589.31;10351328;28;1969;-71
2022/01/01 14:16:39;;;;;;;;;;;11.80;99.90;;;10.92;77.28;96594.00;10356377;28;1841;-71
2022/01/01 14:21:43;;;;;;;;;;;11.90;99.90;;;10.91;79.14;96592.38;10354980;28;1878;-72
2022/01/01 14:26:46;;;;;;;;;;;11.90;99.90;;;10.88;79.06;96590.19;10354101;28;1851;-72
2022/01/01 14:31:49;;;;;;;;;;;11.90;99.90;;;10.89;78.63;96595.34;10372937;28;2254;-71
2022/01/01 14:36:52;;;;;;;;;;;11.90;99.90;;;10.96;76.80;96579.78;10358187;28;1898;-71
2022/01/01 14:41:56;;;;;;;;;;;11.90;99.90;;;10.77;79.24;96575.84;10352526;28;1813;-72
2022/01/01 14:46:59;;;;;;;;;;;11.90;99.90;;;10.78;78.99;96572.09;10358082;28;1886;-72
2022/01/01 14:52:04;;;;;;;;;;;11.80;99.90;;;10.63;79.84;96567.41;10361809;28;1998;-73
2022/01/01 14:57:07;;;;;;;;;;;11.70;99.90;;;10.72;78.90;96567.72;10360627;28;1823;-71
2022/01/01 15:02:10;;;;;;;;;;;11.80;99.90;;;10.63;80.95;96562.03;10360866;28;1956;-72
2022/01/01 15:07:14;;;;;;;;;;;11.70;99.90;;;10.57;81.50;96563.03;10364044;28;1878;-72
2022/01/01 15:12:17;;;;;;;;;;;11.70;99.90;;;10.54;82.16;96567.03;10358484;28;2219;-72
2022/01/01 15:17:20;;;;;;;;;;;11.70;99.90;;;10.37;83.38;96552.06;10358018;28;1893;-72
2022/01/01 15:22:24;;;;;;;;;;;11.50;99.90;;;10.36;83.85;96559.31;10358698;28;1867;-71
2022/01/01 15:27:27;;;;;;;;;;;11.50;99.90;;;10.26;84.66;96548.47;10353886;28;1941;-73
2022/01/01 15:38:15;;;;;;;;;;;11.30;99.90;;;9.93;86.63;96547.53;10282347;28;1917;-73
2022/01/01 15:43:18;;;;;;;;;;;11.20;99.90;;;9.74;87.91;96556.97;10345839;28;1874;-71
2022/01/01 15:48:21;;;;;;;;;;;11.00;99.90;;;9.64;88.36;96563.00;10363660;28;2267;-73
2022/01/01 15:53:24;;;;;;;;;;;10.80;99.90;;;9.32;91.10;96551.25;10362904;28;2228;-72
2022/01/01 15:58:27;;;;;;;;;;;10.70;99.90;;;9.17;92.55;96552.66;10366702;28;2318;-71
2022/01/01 16:03:31;;;;;;;;;;;10.50;99.90;;;9.14;92.75;96545.09;10359543;28;1828;-72
2022/01/01 16:08:35;;;;;;;;;;;10.40;99.90;;;8.97;93.64;96533.59;10365394;28;1877;-72
2022/01/01 16:13:38;;;;;;;;;;;10.30;99.90;;;8.82;94.48;96533.34;10362961;28;2144;-72
2022/01/01 16:18:41;;;;;;;;;;;10.10;99.90;;;8.73;95.66;96524.09;10365655;28;1946;-73
2022/01/01 16:23:46;;;;;;;;;;;10.00;99.90;;;8.59;97.16;96518.22;10367886;28;1946;-73
2022/01/01 16:28:49;;;;;;;;;;;9.90;99.90;;;8.47;96.79;96518.28;10367286;28;1878;-72
2022/01/01 16:33:52;;;;;;;;;;;9.80;99.90;;;8.37;96.54;96526.94;10380972;28;1974;-71
2022/01/01 16:38:55;;;;;;;;;;;9.70;99.90;;;8.30;97.74;96517.41;10391532;28;1306;-72
2022/01/01 16:43:58;;;;;;;;;;;9.60;99.90;;;8.25;98.04;96514.63;10401561;28;1800;-72
2022/01/01 16:49:02;;;;;;;;;;;9.60;99.90;;;8.12;98.27;96507.72;10387638;28;1768;-73
2022/01/01 16:54:05;;;;;;;;;;;9.40;99.90;;;8.07;97.98;96513.78;10388393;28;1976;-72
2022/01/01 16:59:09;;;;;;;;;;;9.30;99.90;;;7.99;98.02;96503.47;10381448;28;1836;-71
2022/01/01 17:04:13;;;;;;;;;;;9.30;99.90;;;7.98;98.78;96506.38;10362615;28;1943;-72
2022/01/01 17:09:22;;;;;;;;;;;9.20;99.90;;;8.02;97.88;96503.00;10362067;28;1760;-70
2022/01/01 17:14:26;;;;;;;;;;;9.20;99.90;;;7.84;98.34;96495.97;10361227;28;1907;-72
2022/01/01 17:19:31;;;;;;;;;;;9.20;99.90;;;7.61;100.00;96500.56;10364062;28;1800;-71
2022/01/01 17:24:35;;;;;;;;;;;9.00;99.90;;;7.49;100.00;96493.38;10353275;28;1804;-72
2022/01/01 17:29:39;;;;;;;;;;;8.90;99.90;;;7.34;100.00;96498.41;10344885;28;1906;-71
2022/01/01 17:34:59;;;;;;;;;;;8.80;99.90;;;7.21;100.00;96498.66;10359669;28;1976;-71
2022/01/01 17:40:06;;;;;;;;;;;8.60;99.90;;;7.20;100.00;96494.38;10367304;28;1875;-72
2022/01/01 17:45:12;;;;;;;;;;;8.50;99.90;;;7.11;100.00;96493.09;10384426;28;1943;-72
2022/01/01 17:50:19;;;;;;;;;;;8.50;99.90;;;7.10;100.00;96488.78;10349183;28;1861;-70
2022/01/01 17:55:22;;;;;;;;;;;8.40;99.90;;;7.01;100.00;96486.47;10353263;28;2169;-70
2022/01/01 18:00:25;;;;;;;;;;;8.50;99.90;;;6.87;100.00;96486.94;10357342;28;1728;-70
2022/01/01 18:05:29;;;;;;;;;;;8.20;99.90;;;6.83;100.00;96486.59;10353726;28;1999;-70
2022/01/01 18:10:32;;;;;;;;;;;8.10;99.90;;;6.91;100.00;96485.44;10358906;28;1974;-72
2022/01/01 18:15:35;;;;;;;;;;;8.10;99.90;;;6.86;100.00;96488.78;10358317;28;1903;-73
2022/01/01 18:20:39;;;;;;;;;;;8.10;99.90;;;6.89;100.00;96490.22;10356085;28;1918;-71
2022/01/01 18:25:42;;;;;;;;;;;8.10;99.90;;;6.83;100.00;96489.28;10351047;28;1835;-71
2022/01/01 18:30:45;;;;;;;;;;;8.10;99.90;;;6.69;100.00;96486.00;10353539;28;1713;-72
2022/01/01 18:35:49;;;;;;;;;;;8.00;99.90;;;6.66;100.00;96488.31;10350068;28;2196;-72
2022/01/01 18:40:53;;;;;;;;;;;7.90;99.90;;;6.67;100.00;96479.25;10343781;28;1799;-72
2022/01/01 18:45:56;;;;;;;;;;;7.90;99.90;;;6.77;100.00;96474.16;10360854;28;2595;-73
2022/01/01 18:50:59;;;;;;;;;;;7.90;99.90;;;6.65;100.00;96470.66;10361809;28;1773;-72
2022/01/01 18:56:02;;;;;;;;;;;7.90;99.90;;;6.50;100.00;96469.28;10345864;28;1903;-72
2022/01/01 19:01:06;;;;;;;;;;;7.80;99.90;;;6.47;100.00;96458.22;10355479;28;1906;-72
2022/01/01 19:06:10;;;;;;;;;;;7.80;99.90;;;6.42;100.00;96466.09;10361062;28;2254;-72
2022/01/01 19:11:13;;;;;;;;;;;7.70;99.90;;;6.40;100.00;96458.34;10370634;28;1819;-73
2022/01/01 19:16:17;;;;;;;;;;;7.80;99.90;;;6.44;100.00;96464.84;10370423;28;2001;-73
2022/01/01 19:21:20;;;;;;;;;;;7.70;99.90;;;6.51;98.18;96467.41;10364130;28;1834;-72
2022/01/01 19:26:23;;;;;;;;;;;7.70;99.90;;;6.32;98.63;96466.69;10362509;28;1804;-72
2022/01/01 19:31:27;;;;;;;;;;;7.60;99.90;;;6.20;99.67;96463.19;10353902;28;1767;-71
2022/01/01 19:36:31;;;;;;;;;;;7.50;99.90;;;6.09;99.60;96455.94;10350422;28;1990;-72
2022/01/01 19:41:34;;;;;;;;;;;7.40;99.90;;;6.06;100.00;96451.09;10360805;28;1827;-72
2022/01/01 19:46:38;;;;;;;;;;;7.30;99.90;;;6.08;100.00;96443.66;10364333;28;1847;-72
2022/01/01 19:51:41;;;;;;;;;;;7.40;99.90;;;6.09;100.00;96440.75;10360167;28;1858;-72
2022/01/01 20:01:58;;;;;;;;;;;7.30;99.90;;;6.07;100.00;96428.69;10236208;29;1780;-78
2022/01/01 20:07:02;;;;;;;;;;;7.30;99.90;;;6.00;100.00;96430.63;10262414;28;1888;-82
2022/01/01 20:12:06;;;;;;;;;;;7.30;99.90;;;5.97;100.00;96431.91;10255985;28;1967;-81
2022/01/01 20:17:09;;;;;;;;;;;7.40;99.90;;;5.90;100.00;96426.63;10272684;28;1823;-78
2022/01/01 20:22:13;;;;;;;;;;;7.40;99.90;;;5.81;99.80;96428.00;10268167;28;2212;-78
2022/01/01 20:27:16;;;;;;;;;;;7.10;99.90;;;5.72;99.69;96423.19;10264064;28;1868;-80
2022/01/01 20:32:19;;;;;;;;;;;7.00;99.90;;;5.67;100.00;96411.38;10265695;28;2245;-79
2022/01/01 20:37:23;;;;;;;;;;;7.00;99.90;;;5.64;99.88;96414.47;10271383;28;1786;-79
2022/01/01 20:42:26;;;;;;;;;;;6.90;99.90;;;5.55;100.00;96417.72;10269329;28;1899;-80
2022/01/01 20:47:30;;;;;;;;;;;6.90;99.90;;;5.52;100.00;96413.63;10258404;28;1868;-79
2022/01/01 20:52:34;;;;;;;;;;;6.80;99.90;;;5.56;100.00;96398.00;10273709;28;2028;-79
2022/01/01 20:57:37;;;;;;;;;;;6.80;99.90;;;5.60;98.41;96401.84;10252406;28;1799;-81
2022/01/01 21:02:41;;;;;;;;;;;6.80;99.90;;;5.53;97.17;96393.09;10268828;28;1774;-77
2022/01/01 21:07:44;;;;;;;;;;;6.80;99.90;;;5.51;97.58;96398.66;10259931;28;1822;-77
2022/01/01 21:12:49;;;;;;;;;;;6.80;99.90;;;5.51;96.51;96390.66;10265287;28;1965;-78
2022/01/01 21:17:52;;;;;;;;;;;6.80;99.90;;;5.52;96.56;96383.47;10265291;29;1955;-78
2022/01/01 21:22:58;;;;;;;;;;;6.90;99.90;;;5.45;95.49;96380.09;10243060;29;1915;-80
2022/01/01 21:28:02;;;;;;;;;;;6.70;99.90;;;5.38;95.13;96391.66;10260848;28;1966;-79
2022/01/01 21:33:06;;;;;;;;;;;6.70;99.90;;;5.35;95.55;96385.97;10258078;28;1990;-81
2022/01/01 21:38:09;;;;;;;;;;;6.70;99.90;;;5.21;95.52;96385.31;10261501;29;1862;-80
2022/01/01 21:43:13;;;;;;;;;;;6.60;99.90;;;5.17;95.93;96378.00;10262593;23;1980;-75
2022/01/01 21:48:16;;;;;;;;;;;6.50;99.90;;;5.08;96.94;96380.16;10311324;28;1848;-77
2022/01/01 21:53:20;;;;;;;;;;;6.40;99.90;;;5.04;95.28;96386.97;10310264;28;1967;-77
2022/01/01 21:58:24;;;;;;;;;;;6.30;99.90;;;4.98;95.67;96390.53;10315308;28;1824;-76
2022/01/01 22:03:27;;;;;;;;;;;6.30;99.90;;;4.92;96.55;96383.44;10316822;28;1947;-77
2022/01/01 22:08:31;;;;;;;;;;;6.30;99.90;;;4.86;97.42;96377.97;10317017;28;1778;-77
2022/01/01 22:13:34;;;;;;;;;;;6.20;99.90;;;4.76;98.87;96382.97;10312369;28;1906;-77
2022/01/01 22:18:38;;;;;;;;;;;6.10;99.90;;;4.72;97.50;96376.47;10312847;28;1920;-77
2022/01/01 22:23:42;;;;;;;;;;;6.10;99.90;;;4.67;98.95;96372.84;10311861;28;1955;-77
2022/01/01 22:28:46;;;;;;;;;;;6.00;99.90;;;4.55;100.00;96373.59;10315338;28;1837;-77
2022/01/01 22:33:49;;;;;;;;;;;5.90;99.90;;;4.49;100.00;96378.97;10311260;28;1942;-76
2022/01/01 22:38:52;;;;;;;;;;;5.80;99.90;;;4.39;100.00;96360.88;10309270;28;1952;-77
2022/01/01 22:43:55;;;;;;;;;;;5.90;99.90;;;4.33;100.00;96357.22;10328102;28;1865;-78
2022/01/01 22:48:59;;;;;;;;;;;5.70;99.90;;;4.29;100.00;96358.69;10320705;28;1876;-76
2022/01/01 22:54:04;;;;;;;;;;;5.90;99.90;;;4.25;100.00;96356.69;10318317;28;1918;-76
2022/01/01 22:59:08;;;;;;;;;;;5.60;99.90;;;4.15;100.00;96367.84;10322286;28;2010;-75
2022/01/01 23:04:11;;;;;;;;;;;5.50;99.90;;;4.22;100.00;96376.56;10312345;28;1913;-76
2022/01/01 23:09:16;;;;;;;;;;;5.50;99.90;;;4.19;100.00;96369.00;10323079;28;1897;-75
2022/01/01 23:14:29;;;;;;;;;;;5.50;99.90;;;4.29;100.00;96361.34;10321047;28;1927;-76
2022/01/01 23:19:33;;;;;;;;;;;5.50;99.90;;;4.26;100.00;96353.81;10321528;28;1818;-77
2022/01/01 23:24:37;;;;;;;;;;;5.50;99.90;;;4.34;100.00;96342.06;10323228;28;1789;-76
2022/01/01 23:29:41;;;;;;;;;;;5.70;99.90;;;4.34;100.00;96334.09;10321209;28;2011;-77
2022/01/01 23:34:47;;;;;;;;;;;5.50;99.90;;;4.29;100.00;96332.06;10324331;28;1981;-76
2022/01/01 23:39:51;;;;;;;;;;;5.60;99.90;;;4.29;100.00;96344.56;10320408;28;1880;-77
2022/01/01 23:44:59;;;;;;;;;;;5.60;99.90;;;4.27;100.00;96328.81;10321882;28;1848;-75
2022/01/01 23:50:03;;;;;;;;;;;5.60;99.90;;;4.27;100.00;96328.81;10322582;28;1833;-77